EGMC Airport Information

Runway Information
Runway 06 Length 5023 ft width 121 ft
Elevation 49 ft Threshold 571 ft Heading 54
Runway 24 Length 5023 ft Width 121 ft
Elevation 37 ft Threshold 479 ft Heading 234
Airport Frequencies
Type APP Name APP Frequency 130.775 MHZ
Type ATIS Name ATIS Frequency 121.8 MHZ
Type RDR Name RDR Frequency 130.775 MHZ
Type TWR Name TWR Frequency 127.725 MHZ
Airport Navaids
Airport Weather Information & NOTAM
ADDS - METARS form results

(0045 UTC 20 August 2019)
Data provider http://aviationweather.gov/metar/data/
 
METAR text: EGMC 192350Z 24010KT CAVOK 14/11 Q1019
Conditions at: EGMC (SOUTHEND-ON-SEA , GB) observed 2350 UTC 19 August 2019
Temperature: 14.0°C (57°F)
Dewpoint: 11.0°C (52°F) [RH = 82%]
Pressure (altimeter): 30.09 inches Hg (1019.0 mb)
Winds: from the WSW (240 degrees) at 12 MPH (10 knots; 5.1 m/s)
Visibility: 6 or more miles (10+ km)
Ceiling: ceiling and visibility are OK
Clouds: unknown
Weather: no significant weather observed at this time

Forecast for: EGMC (SOUTHEND-ON-SEA , GB)
Text: TAF EGMC 192253Z 2000/2009 26006KT 9999 FEW040
Forecast period: 0000 to 0900 UTC 20 August 2019
Forecast type: FROM: standard forecast or significant change
Winds: from the W (260 degrees) at 7 MPH (6 knots; 3.1 m/s)
Visibility: 6 or more miles 10+ km)
Ceiling: at least 12,000 feet AGL
Clouds: few clouds at 4000 feet AGL
Weather: no significant weather forecast for this period